Time;durP1;ratioP1;P1;durP2;ratioP2;P2;SDS_P1;SDS_P2;PMS_P1;PMS_P2;Temp;Humidity;BMP_temperature;BMP_pressure;BME280_temperature;BME280_humidity;BME280_pressure;Samples;Min_cycle;Max_cycle;Signal;HPM_P1;HPM_P2
2022/01/30 00:00:42;;;;;;;6.17;1.57;;;4.70;99.90;;;;;;4989284;28;20256;-74
2022/01/30 00:03:08;;;;;;;7.53;1.60;;;4.80;99.90;;;;;;4989364;28;20180;-78
2022/01/30 00:05:34;;;;;;;5.47;1.53;;;4.90;99.90;;;;;;4990122;28;20192;-80
2022/01/30 00:08:01;;;;;;;9.43;1.50;;;5.00;99.90;;;;;;4989983;28;20279;-78
2022/01/30 00:10:27;;;;;;;9.13;2.27;;;5.20;99.90;;;;;;4989259;28;20212;-78
2022/01/30 00:12:56;;;;;;;5.20;1.40;;;5.30;99.90;;;;;;4970248;28;20180;-78
2022/01/30 00:18:54;;;;;;;8.23;1.80;;;5.30;99.90;;;;;;4986445;28;20234;-76
2022/01/30 00:23:47;;;;;;;9.47;2.07;;;5.50;99.90;;;;;;4984696;28;20251;-77
2022/01/30 00:26:15;;;;;;;7.80;1.50;;;5.50;99.90;;;;;;4986645;28;20208;-78
2022/01/30 00:28:41;;;;;;;9.47;1.70;;;5.40;99.90;;;;;;4966937;28;20194;-78
2022/01/30 00:31:06;;;;;;;8.37;1.87;;;5.60;99.90;;;;;;4984506;28;20208;-77
2022/01/30 00:33:32;;;;;;;12.63;2.10;;;5.50;99.90;;;;;;4969371;28;20272;-75
2022/01/30 00:35:58;;;;;;;8.60;2.03;;;5.50;99.90;;;;;;4970614;28;20223;-77
2022/01/30 00:38:24;;;;;;;9.90;2.33;;;5.40;99.90;;;;;;4971523;28;20212;-78
2022/01/30 00:40:51;;;;;;;9.30;2.27;;;5.40;99.90;;;;;;4971317;28;20191;-78
2022/01/30 00:43:18;;;;;;;10.40;1.77;;;5.30;99.90;;;;;;4989202;28;20231;-77
2022/01/30 00:45:44;;;;;;;7.20;1.97;;;5.30;99.90;;;;;;4987626;28;20192;-77
2022/01/30 00:48:10;;;;;;;6.60;2.03;;;5.20;99.90;;;;;;4974318;28;20307;-75
2022/01/30 00:50:36;;;;;;;13.30;2.20;;;5.10;99.90;;;;;;4990946;28;20319;-77
2022/01/30 00:53:02;;;;;;;6.60;1.67;;;5.10;99.90;;;;;;4990611;28;20184;-75
2022/01/30 00:55:29;;;;;;;4.83;1.30;;;5.10;99.90;;;;;;4992034;28;20179;-78
2022/01/30 00:57:56;;;;;;;5.60;1.43;;;5.10;99.90;;;;;;4991482;28;20622;-77
2022/01/30 01:00:23;;;;;;;6.50;2.13;;;5.10;99.90;;;;;;4991582;28;20185;-77
2022/01/30 01:02:48;;;;;;;6.40;1.47;;;5.20;99.90;;;;;;4974099;28;20180;-78
2022/01/30 01:05:17;;;;;;;4.63;1.70;;;5.10;99.90;;;;;;4973452;28;20981;-77
2022/01/30 01:07:45;;;;;;;6.93;1.60;;;5.20;99.90;;;;;;4990739;28;20628;-76
2022/01/30 01:13:05;;;;;;;5.00;1.27;;;5.30;99.90;;;;;;4995699;28;20187;-79
2022/01/30 01:24:02;;;;;;;10.93;1.93;;;5.30;99.90;;;;;;4990301;28;20258;-77
2022/01/30 01:26:28;;;;;;;11.93;2.20;;;5.30;99.90;;;;;;4989272;28;20258;-77
2022/01/30 01:28:54;;;;;;;11.13;1.70;;;5.30;99.90;;;;;;4988591;28;20607;-77
2022/01/30 01:31:21;;;;;;;5.97;1.67;;;5.40;99.90;;;;;;4988358;28;20204;-77
2022/01/30 01:36:12;;;;;;;11.70;1.90;;;5.30;99.90;;;;;;4988901;28;20203;-78
2022/01/30 01:38:38;;;;;;;7.13;1.43;;;5.30;99.90;;;;;;4971393;28;20194;-77
2022/01/30 01:41:04;;;;;;;10.47;1.67;;;5.20;99.90;;;;;;4988881;28;20184;-77
2022/01/30 01:43:30;;;;;;;4.17;1.20;;;5.00;99.90;;;;;;4970723;28;20188;-77
2022/01/30 01:45:57;;;;;;;5.10;1.40;;;4.80;99.90;;;;;;4986689;28;20212;-77
2022/01/30 01:48:23;;;;;;;9.17;1.57;;;4.80;99.90;;;;;;4988274;28;20177;-77
2022/01/30 01:51:04;;;;;;;9.10;1.80;;;4.70;99.90;;;;;;4988437;28;20208;-77
2022/01/30 01:53:30;;;;;;;7.40;1.33;;;4.60;99.90;;;;;;4988148;28;20173;-77
2022/01/30 01:55:55;;;;;;;6.93;1.70;;;4.50;99.90;;;;;;4988136;28;20307;-78
2022/01/30 01:58:27;;;;;;;9.37;1.67;;;4.40;99.90;;;;;;4987825;28;20259;-76
2022/01/30 02:00:52;;;;;;;7.37;1.70;;;4.40;99.90;;;;;;4970514;28;20195;-77
2022/01/30 02:03:21;;;;;;;10.87;2.33;;;4.40;99.90;;;;;;4988427;28;20181;-77
2022/01/30 02:05:52;;;;;;;8.80;2.77;;;4.40;99.90;;;;;;4989330;28;20183;-77
2022/01/30 02:08:29;;;;;;;9.43;2.33;;;4.50;99.90;;;;;;4970724;28;20188;-77
2022/01/30 02:24:27;;;;;;;11.00;1.80;;;4.90;99.90;;;;;;4991347;28;20206;-78
2022/01/30 02:26:52;;;;;;;7.50;1.73;;;4.90;99.90;;;;;;4987901;28;20562;-78
2022/01/30 02:29:19;;;;;;;9.93;2.20;;;5.00;99.90;;;;;;4986696;28;20184;-77
2022/01/30 02:31:45;;;;;;;11.33;2.00;;;4.90;99.90;;;;;;4986377;28;20187;-79
2022/01/30 02:34:11;;;;;;;9.83;1.87;;;5.00;99.90;;;;;;4986112;28;20192;-78
2022/01/30 02:36:49;;;;;;;6.93;1.50;;;5.00;99.90;;;;;;4986033;28;20196;-76
2022/01/30 02:39:16;;;;;;;9.70;2.03;;;5.00;99.90;;;;;;4986042;28;20287;-78
2022/01/30 02:41:42;;;;;;;9.73;1.80;;;5.00;99.90;;;;;;4987069;28;20214;-77
2022/01/30 02:46:44;;;;;;;7.87;2.20;;;5.00;99.90;;;;;;4986646;28;20298;-77
2022/01/30 02:49:42;;;;;;;12.63;2.70;;;5.00;99.90;;;;;;4986604;28;20235;-77
2022/01/30 02:52:02;;;;;;;8.33;1.67;;;5.00;99.90;;;;;;4986732;28;20334;-77
2022/01/30 02:54:29;;;;;;;12.70;3.27;;;5.10;99.90;;;;;;4985876;28;20180;-77
2022/01/30 02:56:55;;;;;;;4.97;1.50;;;5.10;99.90;;;;;;4984871;28;20216;-77
2022/01/30 02:59:21;;;;;;;9.17;1.87;;;5.10;99.90;;;;;;4986654;28;20203;-78
2022/01/30 03:01:46;;;;;;;7.00;1.43;;;5.10;99.90;;;;;;4986705;28;21025;-78
2022/01/30 03:04:12;;;;;;;9.10;1.90;;;5.20;99.90;;;;;;4985895;28;20207;-77
2022/01/30 03:06:38;;;;;;;6.90;1.83;;;5.20;99.90;;;;;;4986087;28;20234;-77
2022/01/30 03:09:06;;;;;;;6.50;1.97;;;5.20;99.90;;;;;;4968035;28;20195;-77
2022/01/30 03:11:33;;;;;;;8.17;1.97;;;5.10;99.90;;;;;;4985889;28;20226;-78
2022/01/30 03:13:59;;;;;;;8.43;1.37;;;5.10;99.90;;;;;;4985444;28;20195;-77
2022/01/30 03:16:25;;;;;;;7.77;1.60;;;5.10;99.90;;;;;;4986378;28;20196;-77
2022/01/30 03:18:50;;;;;;;10.87;2.27;;;5.00;99.90;;;;;;4986543;28;20184;-77
2022/01/30 03:21:16;;;;;;;8.67;2.57;;;5.00;99.90;;;;;;4985911;28;20199;-77
2022/01/30 03:23:42;;;;;;;8.07;1.33;;;5.00;99.90;;;;;;4985906;28;20236;-78
2022/01/30 03:26:09;;;;;;;9.53;2.20;;;5.10;99.90;;;;;;4985418;28;20211;-77
2022/01/30 03:28:35;;;;;;;9.03;1.90;;;5.10;99.90;;;;;;4967872;28;20188;-77
2022/01/30 03:31:05;;;;;;;8.07;1.93;;;5.10;99.90;;;;;;4985094;28;20200;-77
2022/01/30 03:33:31;;;;;;;11.57;3.13;;;5.10;99.90;;;;;;4968027;28;20176;-77
2022/01/30 03:35:57;;;;;;;6.07;1.50;;;5.20;99.90;;;;;;4985708;28;20254;-77
2022/01/30 03:38:25;;;;;;;7.17;1.70;;;5.20;99.90;;;;;;4985660;28;20180;-77
2022/01/30 03:40:51;;;;;;;9.97;2.47;;;5.10;99.90;;;;;;4967650;28;20734;-77
2022/01/30 03:43:18;;;;;;;11.47;1.83;;;5.10;99.90;;;;;;4984917;28;20263;-77
2022/01/30 03:45:44;;;;;;;6.60;2.03;;;5.10;99.90;;;;;;4984695;28;20200;-77
2022/01/30 03:48:10;;;;;;;5.83;1.60;;;5.10;99.90;;;;;;4983908;28;20641;-77
2022/01/30 03:50:36;;;;;;;7.07;1.87;;;5.10;99.90;;;;;;4967954;28;20302;-77
2022/01/30 03:53:02;;;;;;;7.50;1.63;;;5.10;99.90;;;;;;4967796;28;20211;-78
2022/01/30 03:55:28;;;;;;;10.87;2.37;;;5.00;99.90;;;;;;4967995;28;20184;-77
2022/01/30 03:57:54;;;;;;;8.00;2.03;;;4.90;99.90;;;;;;4967945;28;20289;-77
2022/01/30 04:00:20;;;;;;;6.23;1.40;;;4.90;99.90;;;;;;4985022;28;20212;-77
2022/01/30 04:02:46;;;;;;;8.93;1.93;;;4.80;99.90;;;;;;4985504;28;20188;-77
2022/01/30 04:05:12;;;;;;;8.93;1.70;;;4.80;99.90;;;;;;4985286;28;20551;-77
2022/01/30 04:07:38;;;;;;;10.07;2.47;;;4.80;99.90;;;;;;4985855;28;20215;-77
2022/01/30 04:10:05;;;;;;;7.20;1.80;;;4.80;99.90;;;;;;4967714;28;20207;-77
2022/01/30 04:12:31;;;;;;;7.63;1.57;;;4.80;99.90;;;;;;4984097;28;20267;-77
2022/01/30 04:14:57;;;;;;;7.73;2.40;;;4.80;99.90;;;;;;4967328;28;20271;-77
2022/01/30 04:17:23;;;;;;;9.97;2.07;;;4.80;99.90;;;;;;4985044;28;20218;-77
2022/01/30 04:19:49;;;;;;;8.93;1.93;;;4.80;99.90;;;;;;4967761;28;20242;-76
2022/01/30 04:22:14;;;;;;;11.70;1.53;;;4.80;99.90;;;;;;4988873;28;20188;-77
2022/01/30 04:24:40;;;;;;;6.97;2.10;;;4.80;99.90;;;;;;4989092;28;20247;-77
2022/01/30 04:27:06;;;;;;;8.67;1.70;;;4.80;99.90;;;;;;4988624;28;20303;-76
2022/01/30 04:29:32;;;;;;;8.27;1.90;;;4.80;99.90;;;;;;4989022;28;20190;-77
2022/01/30 04:31:58;;;;;;;12.57;1.87;;;4.80;99.90;;;;;;4993212;28;20250;-77
2022/01/30 04:34:25;;;;;;;13.57;2.40;;;4.90;99.90;;;;;;4971825;28;20204;-77
2022/01/30 04:37:14;;;;;;;10.60;2.47;;;4.90;99.90;;;;;;4988458;28;20236;-77
2022/01/30 04:52:07;;;;;;;5.43;1.73;;;5.00;99.90;;;;;;4989312;28;20203;-77
2022/01/30 05:00:55;;;;;;;4.60;1.03;;;5.00;99.90;;;;;;4988683;28;20184;-77
2022/01/30 05:06:03;;;;;;;11.63;2.07;;;5.00;99.90;;;;;;4998661;28;20184;-78
2022/01/30 05:08:30;;;;;;;7.83;1.57;;;5.00;99.90;;;;;;4979927;28;20587;-76
2022/01/30 05:10:55;;;;;;;10.97;1.90;;;4.90;99.90;;;;;;4999256;28;20208;-78
2022/01/30 05:13:25;;;;;;;11.67;2.13;;;4.90;99.90;;;;;;4998223;28;20563;-78
2022/01/30 05:15:51;;;;;;;8.47;1.70;;;4.80;99.90;;;;;;4998410;28;20289;-76
2022/01/30 05:18:23;;;;;;;7.33;2.00;;;4.80;99.90;;;;;;4987589;28;20213;-76
2022/01/30 05:20:48;;;;;;;9.17;1.90;;;4.80;99.90;;;;;;5007420;28;20199;-76
2022/01/30 05:23:16;;;;;;;11.07;1.97;;;4.80;99.90;;;;;;4998292;28;20188;-77
2022/01/30 05:25:44;;;;;;;10.53;2.87;;;4.90;99.90;;;;;;4997688;28;20268;-79
2022/01/30 05:28:09;;;;;;;9.43;2.30;;;4.90;99.90;;;;;;4998043;28;20214;-78
2022/01/30 05:30:36;;;;;;;10.93;2.50;;;4.90;99.90;;;;;;4997647;28;20231;-79
2022/01/30 05:33:02;;;;;;;12.87;2.30;;;4.90;99.90;;;;;;4980928;28;20216;-76
2022/01/30 05:35:28;;;;;;;7.90;1.63;;;4.90;99.90;;;;;;4997606;28;20173;-77
2022/01/30 05:37:55;;;;;;;8.70;1.83;;;4.90;99.90;;;;;;4979975;28;20203;-79
2022/01/30 05:40:22;;;;;;;9.47;2.50;;;4.80;99.90;;;;;;4997278;28;20185;-75
2022/01/30 05:42:48;;;;;;;10.33;2.13;;;4.80;99.90;;;;;;4998652;28;20181;-79
2022/01/30 05:45:25;;;;;;;9.90;1.97;;;4.70;99.90;;;;;;4980410;28;20206;-78
2022/01/30 05:48:37;;;;;;;10.87;2.10;;;4.70;99.90;;;;;;4998012;28;20318;-76
2022/01/30 05:50:38;;;;;;;10.97;2.03;;;4.70;99.90;;;;;;4991222;28;20222;-77
2022/01/30 05:53:04;;;;;;;9.23;2.20;;;4.60;99.90;;;;;;4998310;28;20244;-77
2022/01/30 05:55:31;;;;;;;8.07;2.13;;;4.70;99.90;;;;;;4997184;28;20797;-79
2022/01/30 05:57:57;;;;;;;12.00;2.50;;;4.60;99.90;;;;;;4997527;28;20258;-77
2022/01/30 06:00:23;;;;;;;8.43;2.83;;;4.60;99.90;;;;;;4979402;28;20195;-78
2022/01/30 06:02:49;;;;;;;12.10;2.47;;;4.60;99.90;;;;;;4998350;28;20181;-78
2022/01/30 06:05:16;;;;;;;8.90;2.23;;;4.60;99.90;;;;;;4996417;28;20192;-77
2022/01/30 06:07:49;;;;;;;11.77;2.20;;;4.60;99.90;;;;;;4996024;28;20270;-78
2022/01/30 06:10:15;;;;;;;9.37;2.40;;;4.50;99.90;;;;;;4989988;28;20223;-77
2022/01/30 06:12:41;;;;;;;10.20;1.93;;;4.50;99.90;;;;;;4987098;28;20192;-78
2022/01/30 06:15:08;;;;;;;9.53;2.73;;;4.40;99.90;;;;;;4987456;28;20295;-77
2022/01/30 06:17:35;;;;;;;7.83;1.80;;;4.30;99.90;;;;;;4987801;28;20206;-78
2022/01/30 06:20:00;;;;;;;11.27;2.63;;;4.20;99.90;;;;;;4987972;28;20191;-78
2022/01/30 06:22:26;;;;;;;11.03;2.30;;;4.10;99.90;;;;;;4986487;28;20187;-78
2022/01/30 06:24:51;;;;;;;13.57;2.67;;;4.10;99.90;;;;;;4987475;28;20199;-78
2022/01/30 06:27:17;;;;;;;8.33;2.20;;;4.00;99.90;;;;;;4987591;28;20270;-78
2022/01/30 06:29:42;;;;;;;11.13;3.20;;;4.00;99.90;;;;;;4986906;28;20796;-78
2022/01/30 06:32:08;;;;;;;11.63;2.43;;;3.90;99.90;;;;;;4987061;28;20626;-77
2022/01/30 06:34:34;;;;;;;7.37;1.60;;;3.90;99.90;;;;;;4986746;28;20609;-77
2022/01/30 06:36:59;;;;;;;11.57;2.73;;;3.90;99.90;;;;;;4987012;28;20201;-77
2022/01/30 06:39:25;;;;;;;11.57;2.33;;;3.90;99.90;;;;;;4987164;28;20176;-78
2022/01/30 06:41:52;;;;;;;14.53;3.23;;;3.90;99.90;;;;;;4987600;28;20188;-78
2022/01/30 06:44:17;;;;;;;10.53;2.50;;;3.90;99.90;;;;;;4986920;28;20184;-78
2022/01/30 06:46:43;;;;;;;11.07;2.63;;;3.90;99.90;;;;;;4970664;28;20218;-77
2022/01/30 06:49:09;;;;;;;12.97;2.47;;;3.80;99.90;;;;;;4969949;28;20181;-77
2022/01/30 06:51:34;;;;;;;13.27;2.73;;;3.80;99.90;;;;;;4989153;28;20286;-78
2022/01/30 06:54:00;;;;;;;10.93;2.70;;;3.80;99.90;;;;;;4972742;28;20188;-78
2022/01/30 06:56:25;;;;;;;12.60;3.03;;;3.80;99.90;;;;;;4989721;28;20196;-78
2022/01/30 06:58:55;;;;;;;7.50;2.47;;;3.90;99.90;;;;;;4989523;28;20602;-78
2022/01/30 07:01:22;;;;;;;15.43;2.57;;;4.00;99.90;;;;;;4989362;28;20172;-78
2022/01/30 07:03:48;;;;;;;11.17;2.50;;;4.00;99.90;;;;;;4972075;28;20188;-78
2022/01/30 07:06:14;;;;;;;10.60;3.03;;;4.00;99.90;;;;;;4985920;28;20213;-77
2022/01/30 07:08:39;;;;;;;12.87;2.77;;;4.10;99.90;;;;;;4970136;28;20187;-76
2022/01/30 07:11:05;;;;;;;14.17;2.77;;;4.10;99.90;;;;;;4968723;28;20203;-79
2022/01/30 07:13:30;;;;;;;17.63;3.90;;;4.10;99.90;;;;;;4968925;28;20188;-79
2022/01/30 07:15:56;;;;;;;12.83;3.10;;;4.20;99.90;;;;;;4968642;28;20178;-77
2022/01/30 07:18:21;;;;;;;15.17;3.40;;;4.20;99.90;;;;;;4986311;28;20187;-78
2022/01/30 07:20:47;;;;;;;10.73;2.70;;;4.20;99.90;;;;;;4986353;28;20254;-79
2022/01/30 07:23:13;;;;;;;12.60;3.00;;;4.20;99.90;;;;;;4987212;28;20184;-78
2022/01/30 07:25:39;;;;;;;15.43;2.50;;;4.20;99.90;;;;;;4969018;28;20180;-78
2022/01/30 07:28:05;;;;;;;12.93;4.03;;;4.20;99.90;;;;;;4970800;28;20356;-78
2022/01/30 07:30:30;;;;;;;11.20;2.33;;;4.20;99.90;;;;;;4987899;28;20327;-78
2022/01/30 07:32:56;;;;;;;11.97;2.73;;;4.20;99.90;;;;;;4986152;28;20172;-77
2022/01/30 07:35:22;;;;;;;15.30;3.37;;;4.30;99.90;;;;;;4984536;28;20245;-78
2022/01/30 07:37:47;;;;;;;11.97;2.50;;;4.30;99.90;;;;;;4983958;28;20197;-79
2022/01/30 07:40:13;;;;;;;14.03;2.80;;;4.30;99.90;;;;;;4967019;28;20195;-77
2022/01/30 07:42:39;;;;;;;14.90;2.77;;;4.30;99.90;;;;;;4966884;28;20561;-76
2022/01/30 07:45:05;;;;;;;13.70;3.27;;;4.30;99.90;;;;;;4983917;28;21010;-76
2022/01/30 07:47:31;;;;;;;15.67;3.50;;;4.40;99.90;;;;;;4983106;28;20701;-77
2022/01/30 07:49:57;;;;;;;18.17;3.07;;;4.30;99.90;;;;;;4983881;28;20204;-76
2022/01/30 07:52:23;;;;;;;13.20;3.03;;;4.40;99.90;;;;;;4983461;28;20665;-76
2022/01/30 07:54:49;;;;;;;13.37;2.80;;;4.40;99.90;;;;;;4966106;28;20203;-79
2022/01/30 07:57:17;;;;;;;10.60;3.43;;;4.50;99.90;;;;;;4989075;28;20211;-76
2022/01/30 07:59:43;;;;;;;16.70;2.60;;;4.50;99.90;;;;;;4989871;28;20183;-77
2022/01/30 08:02:08;;;;;;;15.77;3.40;;;4.40;99.90;;;;;;4973374;28;20184;-79
2022/01/30 08:04:34;;;;;;;12.93;3.40;;;4.40;99.90;;;;;;4990879;28;20194;-78
2022/01/30 08:07:00;;;;;;;15.07;2.50;;;4.50;99.90;;;;;;4972970;28;20254;-76
2022/01/30 08:09:26;;;;;;;10.80;2.77;;;4.50;99.90;;;;;;4990501;28;20539;-76
2022/01/30 08:11:52;;;;;;;17.00;4.00;;;4.50;99.90;;;;;;4972154;28;20176;-75
2022/01/30 08:14:18;;;;;;;10.87;3.47;;;4.50;99.90;;;;;;4972428;28;20654;-78
2022/01/30 08:16:43;;;;;;;14.37;3.27;;;4.60;99.90;;;;;;4990034;28;20207;-75
2022/01/30 08:19:09;;;;;;;14.50;2.53;;;4.50;99.90;;;;;;4972299;28;20184;-75
2022/01/30 08:21:35;;;;;;;17.53;3.87;;;4.50;99.90;;;;;;4989172;28;20187;-76
2022/01/30 08:24:00;;;;;;;11.83;2.93;;;4.60;99.90;;;;;;4989363;28;20195;-76
2022/01/30 08:26:26;;;;;;;17.17;2.57;;;4.60;99.90;;;;;;4989842;28;20238;-76
2022/01/30 08:28:51;;;;;;;13.93;2.93;;;4.60;99.90;;;;;;4990111;28;20180;-76
2022/01/30 08:31:17;;;;;;;14.87;3.40;;;4.60;99.90;;;;;;4972540;28;20215;-76
2022/01/30 08:33:42;;;;;;;13.50;3.40;;;4.70;99.90;;;;;;4974016;28;20831;-76
2022/01/30 08:36:08;;;;;;;15.03;2.40;;;4.70;99.90;;;;;;4990642;28;20215;-78
2022/01/30 08:38:34;;;;;;;16.70;3.17;;;4.80;99.90;;;;;;4973082;28;20204;-79
2022/01/30 08:40:59;;;;;;;13.57;2.67;;;4.80;99.90;;;;;;4991777;28;20643;-78
2022/01/30 08:43:25;;;;;;;11.73;3.10;;;4.90;99.90;;;;;;4990958;28;20191;-76
2022/01/30 08:45:52;;;;;;;15.03;2.53;;;5.00;99.90;;;;;;4990269;28;20192;-78
2022/01/30 08:48:18;;;;;;;15.93;3.57;;;5.10;99.90;;;;;;4971116;28;20188;-76
2022/01/30 08:50:45;;;;;;;10.77;2.47;;;5.20;99.90;;;;;;4985288;28;20266;-75
2022/01/30 08:53:11;;;;;;;9.67;3.07;;;5.20;99.90;;;;;;4984479;28;20714;-76
2022/01/30 08:55:36;;;;;;;21.23;4.13;;;5.10;99.90;;;;;;4986020;28;20180;-76
2022/01/30 08:58:12;;;;;;;11.27;2.77;;;5.20;99.90;;;;;;4986677;28;20699;-76
2022/01/30 09:00:40;;;;;;;15.03;3.73;;;5.20;99.90;;;;;;4985289;28;20218;-78
2022/01/30 09:03:06;;;;;;;14.10;2.70;;;5.20;99.90;;;;;;4985571;28;20250;-76
2022/01/30 09:05:33;;;;;;;14.50;2.57;;;5.10;99.90;;;;;;4985717;28;20184;-78
2022/01/30 09:07:59;;;;;;;15.47;2.87;;;5.10;99.90;;;;;;4969316;28;20571;-79
2022/01/30 09:10:25;;;;;;;16.40;3.10;;;5.10;99.90;;;;;;4986606;28;20208;-78
2022/01/30 09:12:51;;;;;;;16.63;2.87;;;5.10;99.90;;;;;;4985124;28;20184;-80
2022/01/30 09:15:17;;;;;;;8.63;2.63;;;5.10;99.90;;;;;;4984071;28;20593;-78
2022/01/30 09:17:44;;;;;;;18.57;3.30;;;5.10;99.90;;;;;;4984359;28;20215;-79
2022/01/30 09:20:10;;;;;;;11.10;2.67;;;5.10;99.90;;;;;;4984050;28;20234;-78
2022/01/30 09:22:37;;;;;;;10.37;2.70;;;5.20;99.90;;;;;;4984522;28;20185;-75
2022/01/30 09:25:04;;;;;;;10.03;2.00;;;5.30;99.90;;;;;;4967307;28;20230;-78
2022/01/30 09:27:30;;;;;;;10.67;3.20;;;5.30;99.90;;;;;;4967443;28;20207;-77
2022/01/30 09:29:56;;;;;;;15.50;2.37;;;5.30;99.90;;;;;;4983835;28;20219;-76
2022/01/30 09:32:21;;;;;;;12.43;2.97;;;5.30;99.90;;;;;;4984110;28;20771;-76
2022/01/30 09:34:47;;;;;;;10.73;2.37;;;5.30;99.90;;;;;;4983111;28;20181;-78
2022/01/30 09:37:13;;;;;;;8.37;2.13;;;5.30;99.90;;;;;;4967463;28;20208;-78
2022/01/30 09:39:39;;;;;;;16.90;2.97;;;5.40;99.90;;;;;;4986027;28;20621;-77
2022/01/30 09:42:05;;;;;;;9.37;2.67;;;5.40;99.90;;;;;;4983852;28;20323;-76
2022/01/30 09:44:35;;;;;;;6.77;2.00;;;5.50;99.90;;;;;;4968798;28;20970;-78
2022/01/30 09:47:02;;;;;;;8.50;2.60;;;5.40;99.90;;;;;;4969228;28;20231;-78
2022/01/30 09:49:29;;;;;;;12.10;2.60;;;5.50;99.90;;;;;;4986867;28;20646;-77
2022/01/30 09:51:55;;;;;;;9.53;2.40;;;5.60;99.90;;;;;;4986985;28;20187;-77
2022/01/30 09:54:21;;;;;;;7.77;2.27;;;5.70;99.90;;;;;;4981820;28;20575;-77
2022/01/30 09:56:47;;;;;;;12.40;2.93;;;5.70;99.90;;;;;;4983136;28;20215;-77
2022/01/30 09:59:13;;;;;;;12.93;2.57;;;5.70;99.90;;;;;;4980388;28;20180;-77
2022/01/30 10:01:39;;;;;;;11.20;2.30;;;5.80;99.90;;;;;;4983169;28;20188;-77
2022/01/30 10:04:06;;;;;;;13.30;3.23;;;5.80;99.90;;;;;;4965152;28;20199;-73
2022/01/30 10:06:50;;;;;;;8.13;2.40;;;5.80;99.90;;;;;;4983304;28;20215;-77
2022/01/30 10:09:24;;;;;;;9.90;2.23;;;6.10;99.90;;;;;;4981973;28;20511;-77
2022/01/30 10:12:00;;;;;;;13.10;3.30;;;6.20;99.90;;;;;;4982480;28;20211;-76
2022/01/30 10:14:25;;;;;;;10.23;2.50;;;6.20;99.90;;;;;;4981390;28;20441;-77
2022/01/30 10:16:51;;;;;;;12.00;2.67;;;6.10;99.90;;;;;;4982610;28;20581;-78
2022/01/30 10:19:20;;;;;;;8.43;2.70;;;6.10;99.90;;;;;;4981832;28;20613;-77
2022/01/30 10:21:50;;;;;;;12.03;2.90;;;6.10;99.90;;;;;;4982027;28;20180;-77
2022/01/30 10:24:27;;;;;;;12.73;3.57;;;6.10;99.90;;;;;;4982032;28;20526;-76
2022/01/30 10:26:57;;;;;;;14.27;3.57;;;6.10;99.90;;;;;;4982617;28;20773;-77
2022/01/30 10:29:28;;;;;;;11.70;2.93;;;6.20;99.90;;;;;;4981361;28;20191;-76
2022/01/30 10:32:09;;;;;;;13.87;3.87;;;6.30;99.90;;;;;;4983534;28;20287;-76
2022/01/30 10:34:39;;;;;;;11.47;2.97;;;6.20;99.90;;;;;;4979796;28;20179;-77
2022/01/30 10:37:23;;;;;;;10.07;3.03;;;6.20;99.90;;;;;;4963875;28;20215;-77
2022/01/30 10:40:14;;;;;;;13.70;3.00;;;6.30;99.90;;;;;;4982566;28;20558;-78
2022/01/30 10:42:50;;;;;;;10.40;2.53;;;6.30;99.90;;;;;;4981520;28;20180;-76
2022/01/30 10:45:19;;;;;;;15.33;3.33;;;6.40;99.90;;;;;;4963211;28;20183;-75
2022/01/30 10:47:45;;;;;;;15.40;3.30;;;6.20;99.90;;;;;;4963819;28;20235;-76
2022/01/30 10:50:22;;;;;;;13.73;3.33;;;6.40;99.90;;;;;;4980635;28;20220;-76
2022/01/30 10:52:53;;;;;;;15.30;4.27;;;6.40;99.90;;;;;;4962045;28;20176;-77
2022/01/30 10:55:37;;;;;;;14.07;3.63;;;6.40;99.90;;;;;;4980736;28;20184;-75
2022/01/30 10:58:04;;;;;;;15.57;2.63;;;6.40;99.90;;;;;;4980793;28;20211;-77
2022/01/30 11:00:45;;;;;;;12.30;2.90;;;6.40;99.90;;;;;;4981614;28;20697;-75
2022/01/30 11:03:37;;;;;;;11.07;3.03;;;6.40;99.90;;;;;;4981101;28;20199;-76
2022/01/30 11:06:06;;;;;;;11.30;3.83;;;6.40;99.90;;;;;;4963467;28;20267;-76
2022/01/30 11:08:33;;;;;;;13.90;2.83;;;6.40;99.90;;;;;;4980840;28;20184;-76
2022/01/30 11:11:05;;;;;;;13.00;3.53;;;6.40;99.90;;;;;;4980468;28;20519;-75
2022/01/30 11:13:32;;;;;;;16.77;3.33;;;6.30;99.90;;;;;;4980322;28;20565;-76
2022/01/30 11:16:56;;;;;;;14.77;3.20;;;6.20;99.90;;;;;;4981304;28;20184;-76
2022/01/30 11:18:49;;;;;;;10.70;2.60;;;6.20;99.90;;;;;;4981401;28;20181;-76
2022/01/30 11:21:20;;;;;;;14.83;3.33;;;6.20;99.90;;;;;;4980566;28;20306;-76
2022/01/30 11:23:49;;;;;;;15.07;3.57;;;6.20;99.90;;;;;;4981696;28;20354;-77
2022/01/30 11:26:15;;;;;;;13.03;2.97;;;6.20;99.90;;;;;;4981764;28;20295;-76
2022/01/30 11:28:41;;;;;;;15.57;4.07;;;6.20;99.90;;;;;;4981406;28;20319;-76
2022/01/30 11:31:07;;;;;;;16.13;2.90;;;6.20;99.90;;;;;;4980101;28;20222;-77
2022/01/30 11:33:35;;;;;;;14.53;2.83;;;6.20;99.90;;;;;;4981065;28;20981;-77
2022/01/30 11:36:01;;;;;;;14.23;3.63;;;6.20;99.90;;;;;;4980570;28;20215;-76
2022/01/30 11:38:27;;;;;;;12.83;3.33;;;6.30;99.90;;;;;;4980437;28;20176;-76
2022/01/30 11:41:13;;;;;;;13.07;3.13;;;6.30;99.90;;;;;;4962695;28;20527;-76
2022/01/30 11:43:39;;;;;;;15.63;3.30;;;6.30;99.90;;;;;;4962070;28;20568;-75
2022/01/30 11:46:15;;;;;;;15.63;3.67;;;6.30;99.90;;;;;;4979489;28;20230;-77
2022/01/30 11:48:41;;;;;;;13.17;3.50;;;6.40;99.90;;;;;;4980067;28;20184;-76
2022/01/30 11:51:07;;;;;;;15.90;4.23;;;6.40;99.90;;;;;;4979998;28;20617;-76
2022/01/30 11:53:33;;;;;;;17.17;3.50;;;6.50;99.90;;;;;;4977756;28;20595;-76
2022/01/30 11:56:02;;;;;;;10.33;3.00;;;6.50;99.90;;;;;;4962653;28;20814;-75
2022/01/30 11:58:33;;;;;;;13.33;3.67;;;6.60;99.90;;;;;;4979805;28;20215;-76
2022/01/30 12:01:35;;;;;;;11.73;3.10;;;6.60;99.90;;;;;;4982328;28;20254;-77
2022/01/30 12:04:03;;;;;;;17.10;4.17;;;6.40;99.90;;;;;;4975995;28;20290;-76
2022/01/30 12:06:31;;;;;;;20.60;3.73;;;6.40;99.90;;;;;;4965108;28;20207;-77
2022/01/30 12:08:59;;;;;;;13.27;3.73;;;6.30;99.90;;;;;;4965048;28;20239;-77
2022/01/30 12:11:37;;;;;;;13.07;3.37;;;6.30;99.90;;;;;;4981681;28;20216;-77
2022/01/30 12:14:03;;;;;;;19.83;3.93;;;6.30;99.90;;;;;;4981128;28;20600;-77
2022/01/30 12:16:42;;;;;;;15.97;3.83;;;6.30;99.90;;;;;;4980323;28;20286;-76
2022/01/30 12:19:07;;;;;;;19.23;4.60;;;6.20;99.90;;;;;;4979545;28;20226;-76
2022/01/30 12:21:33;;;;;;;18.43;4.43;;;6.20;99.90;;;;;;4980311;28;20212;-76
2022/01/30 12:24:22;;;;;;;16.73;5.17;;;6.20;99.90;;;;;;4979219;28;20187;-76
2022/01/30 12:26:58;;;;;;;15.87;3.47;;;6.20;99.90;;;;;;4963150;28;20589;-78
2022/01/30 12:29:44;;;;;;;15.10;3.80;;;6.10;99.90;;;;;;4963712;28;20849;-76
2022/01/30 12:32:22;;;;;;;15.90;4.50;;;6.10;99.90;;;;;;4980355;28;20228;-76
2022/01/30 12:34:57;;;;;;;18.23;4.27;;;6.10;99.90;;;;;;4961647;28;20682;-76
2022/01/30 12:37:25;;;;;;;18.40;6.37;;;6.00;99.90;;;;;;4962591;28;20211;-77
2022/01/30 12:39:52;;;;;;;15.83;4.27;;;6.10;99.90;;;;;;4980063;28;20192;-77
2022/01/30 12:42:19;;;;;;;15.50;4.37;;;6.10;99.90;;;;;;4982649;28;20319;-76
2022/01/30 12:44:47;;;;;;;17.47;3.60;;;6.20;99.90;;;;;;4981549;28;20212;-77
2022/01/30 12:47:13;;;;;;;16.83;3.43;;;6.20;99.90;;;;;;4982968;28;20721;-76
2022/01/30 12:49:44;;;;;;;16.40;3.57;;;6.20;99.90;;;;;;4983281;28;20176;-77
2022/01/30 12:52:20;;;;;;;18.17;4.77;;;6.20;99.90;;;;;;4984335;28;20204;-79
2022/01/30 12:54:50;;;;;;;17.37;3.97;;;6.20;99.90;;;;;;4963822;28;20267;-77
2022/01/30 12:57:19;;;;;;;18.17;4.03;;;6.20;99.90;;;;;;4983919;28;20200;-78
2022/01/30 12:59:58;;;;;;;13.47;3.03;;;6.20;99.90;;;;;;4970215;28;20701;-78
2022/01/30 13:02:29;;;;;;;21.67;5.50;;;6.10;99.90;;;;;;4989962;28;20184;-78
2022/01/30 13:05:02;;;;;;;15.47;3.57;;;6.10;99.90;;;;;;4987091;28;20183;-78
2022/01/30 13:07:28;;;;;;;13.70;3.80;;;6.10;99.90;;;;;;4988004;28;20670;-77
2022/01/30 13:10:15;;;;;;;12.80;4.40;;;6.10;99.90;;;;;;4987303;28;20186;-77
2022/01/30 13:12:45;;;;;;;12.20;3.43;;;6.30;99.90;;;;;;4987441;28;20233;-77
2022/01/30 13:15:25;;;;;;;14.73;4.13;;;6.30;99.90;;;;;;4968709;28;20192;-77
2022/01/30 13:17:52;;;;;;;12.53;3.40;;;6.20;99.90;;;;;;4968952;28;20688;-77
2022/01/30 13:20:23;;;;;;;19.07;3.33;;;6.30;99.90;;;;;;4987174;28;20180;-77
2022/01/30 13:22:50;;;;;;;16.27;3.47;;;6.30;99.90;;;;;;4969750;28;20246;-77
2022/01/30 13:25:18;;;;;;;13.67;3.47;;;6.30;99.90;;;;;;4987394;28;20254;-77
2022/01/30 13:27:51;;;;;;;14.20;3.20;;;6.30;99.90;;;;;;4987298;28;20224;-77
2022/01/30 13:30:24;;;;;;;14.47;3.20;;;6.20;99.90;;;;;;4985782;28;20713;-78
2022/01/30 13:32:51;;;;;;;18.03;4.03;;;6.20;99.90;;;;;;4986681;28;20183;-78
2022/01/30 13:35:20;;;;;;;15.53;3.60;;;6.10;99.90;;;;;;4986857;28;20224;-78
2022/01/30 13:37:47;;;;;;;16.50;3.10;;;6.20;99.90;;;;;;4986746;28;20254;-78
2022/01/30 13:40:21;;;;;;;14.90;3.83;;;6.10;99.90;;;;;;4987246;28;20726;-77
2022/01/30 13:42:59;;;;;;;20.30;4.27;;;6.10;99.90;;;;;;4985253;28;20186;-77
2022/01/30 13:48:10;;;;;;;18.13;3.70;;;6.00;99.90;;;;;;4988622;28;20683;-78
2022/01/30 13:50:41;;;;;;;11.53;3.37;;;6.00;99.90;;;;;;4970973;28;20232;-78
2022/01/30 13:53:24;;;;;;;14.60;3.87;;;6.00;99.90;;;;;;4971483;28;20184;-78
2022/01/30 13:56:00;;;;;;;15.87;3.23;;;6.00;99.90;;;;;;4988879;28;20184;-78